sensor_id;sensor_type;location;lat;lon;timestamp;temperature;humidity
6486;DHT22;3276;48.490;9.222;2022-11-20T00:02:21;5.60;24.80
6486;DHT22;3276;48.490;9.222;2022-11-20T00:04:46;5.60;25.40
6486;DHT22;3276;48.490;9.222;2022-11-20T00:07:12;5.60;25.40
6486;DHT22;3276;48.490;9.222;2022-11-20T00:09:37;5.50;25.50
6486;DHT22;3276;48.490;9.222;2022-11-20T00:12:03;5.40;26.00
6486;DHT22;3276;48.490;9.222;2022-11-20T00:14:29;5.40;26.40
6486;DHT22;3276;48.490;9.222;2022-11-20T00:16:54;5.40;26.60
6486;DHT22;3276;48.490;9.222;2022-11-20T00:19:20;5.30;26.30
6486;DHT22;3276;48.490;9.222;2022-11-20T00:21:45;5.30;26.20
6486;DHT22;3276;48.490;9.222;2022-11-20T00:24:12;5.30;26.10
6486;DHT22;3276;48.490;9.222;2022-11-20T00:26:37;5.20;26.50
6486;DHT22;3276;48.490;9.222;2022-11-20T00:29:03;5.20;26.20
6486;DHT22;3276;48.490;9.222;2022-11-20T00:31:29;5.20;26.60
6486;DHT22;3276;48.490;9.222;2022-11-20T00:33:56;5.20;26.70
6486;DHT22;3276;48.490;9.222;2022-11-20T00:36:25;5.20;26.70
6486;DHT22;3276;48.490;9.222;2022-11-20T00:38:55;5.20;27.60
6486;DHT22;3276;48.490;9.222;2022-11-20T00:41:21;5.10;27.80
6486;DHT22;3276;48.490;9.222;2022-11-20T00:43:47;5.10;28.20
6486;DHT22;3276;48.490;9.222;2022-11-20T00:46:18;5.00;28.30
6486;DHT22;3276;48.490;9.222;2022-11-20T00:48:44;4.90;28.30
6486;DHT22;3276;48.490;9.222;2022-11-20T00:51:12;5.00;28.40
6486;DHT22;3276;48.490;9.222;2022-11-20T00:53:38;4.90;28.30
6486;DHT22;3276;48.490;9.222;2022-11-20T00:56:06;4.90;28.30
6486;DHT22;3276;48.490;9.222;2022-11-20T00:58:37;4.90;28.90
6486;DHT22;3276;48.490;9.222;2022-11-20T01:01:11;4.80;28.70
6486;DHT22;3276;48.490;9.222;2022-11-20T01:03:39;4.80;28.30
6486;DHT22;3276;48.490;9.222;2022-11-20T01:06:07;4.80;28.60
6486;DHT22;3276;48.490;9.222;2022-11-20T01:08:35;4.70;29.00
6486;DHT22;3276;48.490;9.222;2022-11-20T01:11:06;4.70;29.90
6486;DHT22;3276;48.490;9.222;2022-11-20T01:13:33;4.70;29.90
6486;DHT22;3276;48.490;9.222;2022-11-20T01:16:18;4.70;30.50
6486;DHT22;3276;48.490;9.222;2022-11-20T01:18:46;4.70;30.40
6486;DHT22;3276;48.490;9.222;2022-11-20T01:21:15;4.70;30.30
6486;DHT22;3276;48.490;9.222;2022-11-20T01:23:42;4.70;30.80
6486;DHT22;3276;48.490;9.222;2022-11-20T01:26:10;4.70;30.40
6486;DHT22;3276;48.490;9.222;2022-11-20T01:28:36;4.70;30.10
6486;DHT22;3276;48.490;9.222;2022-11-20T01:31:11;4.70;30.40
6486;DHT22;3276;48.490;9.222;2022-11-20T01:33:37;4.60;31.80
6486;DHT22;3276;48.490;9.222;2022-11-20T01:36:04;4.70;31.00
6486;DHT22;3276;48.490;9.222;2022-11-20T01:38:30;4.70;30.20
6486;DHT22;3276;48.490;9.222;2022-11-20T01:40:56;4.70;30.00
6486;DHT22;3276;48.490;9.222;2022-11-20T01:43:22;4.70;30.20
6486;DHT22;3276;48.490;9.222;2022-11-20T01:45:59;4.60;30.80
6486;DHT22;3276;48.490;9.222;2022-11-20T01:48:31;4.60;31.40
6486;DHT22;3276;48.490;9.222;2022-11-20T01:50:59;4.50;31.00
6486;DHT22;3276;48.490;9.222;2022-11-20T01:53:29;4.50;31.10
6486;DHT22;3276;48.490;9.222;2022-11-20T01:55:57;4.50;31.20
6486;DHT22;3276;48.490;9.222;2022-11-20T01:58:28;4.60;31.10
6486;DHT22;3276;48.490;9.222;2022-11-20T02:00:55;4.50;31.30
6486;DHT22;3276;48.490;9.222;2022-11-20T02:03:21;4.60;30.50
6486;DHT22;3276;48.490;9.222;2022-11-20T02:06:02;4.60;30.90
6486;DHT22;3276;48.490;9.222;2022-11-20T02:08:30;4.60;31.00
6486;DHT22;3276;48.490;9.222;2022-11-20T02:10:56;4.50;30.70
6486;DHT22;3276;48.490;9.222;2022-11-20T02:13:22;4.40;31.10
6486;DHT22;3276;48.490;9.222;2022-11-20T02:16:25;4.50;30.60
6486;DHT22;3276;48.490;9.222;2022-11-20T02:18:53;4.50;31.00
6486;DHT22;3276;48.490;9.222;2022-11-20T02:21:30;4.50;30.90
6486;DHT22;3276;48.490;9.222;2022-11-20T02:26:31;4.70;30.30
6486;DHT22;3276;48.490;9.222;2022-11-20T02:28:58;4.80;30.60
6486;DHT22;3276;48.490;9.222;2022-11-20T02:31:24;4.90;30.50
6486;DHT22;3276;48.490;9.222;2022-11-20T02:33:55;5.00;30.10
6486;DHT22;3276;48.490;9.222;2022-11-20T02:36:21;5.10;29.30
6486;DHT22;3276;48.490;9.222;2022-11-20T02:38:48;5.30;27.90
6486;DHT22;3276;48.490;9.222;2022-11-20T02:41:14;5.40;27.30
6486;DHT22;3276;48.490;9.222;2022-11-20T02:43:39;5.50;27.90
6486;DHT22;3276;48.490;9.222;2022-11-20T02:46:07;5.60;26.40
6486;DHT22;3276;48.490;9.222;2022-11-20T02:48:33;5.60;25.80
6486;DHT22;3276;48.490;9.222;2022-11-20T02:50:58;5.70;24.80
6486;DHT22;3276;48.490;9.222;2022-11-20T02:53:24;5.70;24.10
6486;DHT22;3276;48.490;9.222;2022-11-20T02:55:49;5.70;23.50
6486;DHT22;3276;48.490;9.222;2022-11-20T02:58:15;5.70;24.00
6486;DHT22;3276;48.490;9.222;2022-11-20T03:00:40;5.80;23.80
6486;DHT22;3276;48.490;9.222;2022-11-20T03:03:06;5.80;23.20
6486;DHT22;3276;48.490;9.222;2022-11-20T03:05:31;5.80;23.40
6486;DHT22;3276;48.490;9.222;2022-11-20T03:07:57;5.80;23.20
6486;DHT22;3276;48.490;9.222;2022-11-20T03:10:22;5.80;23.70
6486;DHT22;3276;48.490;9.222;2022-11-20T03:12:53;5.80;23.90
6486;DHT22;3276;48.490;9.222;2022-11-20T03:15:19;5.80;22.60
6486;DHT22;3276;48.490;9.222;2022-11-20T03:17:45;5.80;23.00
6486;DHT22;3276;48.490;9.222;2022-11-20T03:20:10;5.70;21.90
6486;DHT22;3276;48.490;9.222;2022-11-20T03:22:36;5.60;23.00
6486;DHT22;3276;48.490;9.222;2022-11-20T03:25:02;5.60;22.60
6486;DHT22;3276;48.490;9.222;2022-11-20T03:27:32;5.60;22.80
6486;DHT22;3276;48.490;9.222;2022-11-20T03:29:58;5.70;22.90
6486;DHT22;3276;48.490;9.222;2022-11-20T03:32:24;5.70;22.70
6486;DHT22;3276;48.490;9.222;2022-11-20T03:34:49;5.60;23.10
6486;DHT22;3276;48.490;9.222;2022-11-20T03:37:15;5.60;22.80
6486;DHT22;3276;48.490;9.222;2022-11-20T03:39:40;5.70;22.80
6486;DHT22;3276;48.490;9.222;2022-11-20T03:42:06;5.70;22.10
6486;DHT22;3276;48.490;9.222;2022-11-20T03:44:51;5.60;22.10
6486;DHT22;3276;48.490;9.222;2022-11-20T03:47:17;5.70;22.30
6486;DHT22;3276;48.490;9.222;2022-11-20T03:49:42;5.60;22.50
6486;DHT22;3276;48.490;9.222;2022-11-20T03:52:08;5.50;22.30
6486;DHT22;3276;48.490;9.222;2022-11-20T03:54:33;5.50;23.00
6486;DHT22;3276;48.490;9.222;2022-11-20T03:56:59;5.60;22.40
6486;DHT22;3276;48.490;9.222;2022-11-20T03:59:24;5.70;22.00
6486;DHT22;3276;48.490;9.222;2022-11-20T04:01:50;5.80;21.30
6486;DHT22;3276;48.490;9.222;2022-11-20T04:04:15;5.90;20.70
6486;DHT22;3276;48.490;9.222;2022-11-20T04:06:41;6.00;21.40
6486;DHT22;3276;48.490;9.222;2022-11-20T04:09:07;6.10;20.80
6486;DHT22;3276;48.490;9.222;2022-11-20T04:11:35;6.10;21.80
6486;DHT22;3276;48.490;9.222;2022-11-20T04:14:04;6.10;20.80
6486;DHT22;3276;48.490;9.222;2022-11-20T04:16:32;6.10;20.80
6486;DHT22;3276;48.490;9.222;2022-11-20T04:19:00;6.10;20.30
6486;DHT22;3276;48.490;9.222;2022-11-20T04:21:26;6.20;20.30
6486;DHT22;3276;48.490;9.222;2022-11-20T04:23:53;6.30;20.30
6486;DHT22;3276;48.490;9.222;2022-11-20T04:26:19;6.30;20.00
6486;DHT22;3276;48.490;9.222;2022-11-20T04:28:45;6.30;20.00
6486;DHT22;3276;48.490;9.222;2022-11-20T04:31:16;6.30;20.00
6486;DHT22;3276;48.490;9.222;2022-11-20T04:33:42;6.30;19.90
6486;DHT22;3276;48.490;9.222;2022-11-20T04:36:15;6.30;20.60
6486;DHT22;3276;48.490;9.222;2022-11-20T04:38:41;6.40;19.80
6486;DHT22;3276;48.490;9.222;2022-11-20T04:41:17;6.50;18.80
6486;DHT22;3276;48.490;9.222;2022-11-20T04:43:47;6.40;18.80
6486;DHT22;3276;48.490;9.222;2022-11-20T04:46:17;6.40;19.80
6486;DHT22;3276;48.490;9.222;2022-11-20T04:48:43;6.40;19.90
6486;DHT22;3276;48.490;9.222;2022-11-20T04:51:08;6.50;19.20
6486;DHT22;3276;48.490;9.222;2022-11-20T04:53:34;6.50;19.60
6486;DHT22;3276;48.490;9.222;2022-11-20T04:56:01;6.40;18.60
6486;DHT22;3276;48.490;9.222;2022-11-20T04:58:27;6.50;18.70
6486;DHT22;3276;48.490;9.222;2022-11-20T05:00:52;6.50;18.40
6486;DHT22;3276;48.490;9.222;2022-11-20T05:03:18;6.50;18.10
6486;DHT22;3276;48.490;9.222;2022-11-20T05:05:43;6.40;17.70
6486;DHT22;3276;48.490;9.222;2022-11-20T05:08:09;6.40;18.10
6486;DHT22;3276;48.490;9.222;2022-11-20T05:10:34;6.40;18.40
6486;DHT22;3276;48.490;9.222;2022-11-20T05:13:00;6.40;18.10
6486;DHT22;3276;48.490;9.222;2022-11-20T05:15:25;6.40;17.90
6486;DHT22;3276;48.490;9.222;2022-11-20T05:17:52;6.40;18.50
6486;DHT22;3276;48.490;9.222;2022-11-20T05:20:18;6.50;18.80
6486;DHT22;3276;48.490;9.222;2022-11-20T05:22:44;6.50;18.30
6486;DHT22;3276;48.490;9.222;2022-11-20T05:25:10;6.40;18.20
6486;DHT22;3276;48.490;9.222;2022-11-20T05:27:35;6.40;18.00
6486;DHT22;3276;48.490;9.222;2022-11-20T05:30:01;6.40;17.50
6486;DHT22;3276;48.490;9.222;2022-11-20T05:32:27;6.40;17.50
6486;DHT22;3276;48.490;9.222;2022-11-20T05:34:52;6.50;17.70
6486;DHT22;3276;48.490;9.222;2022-11-20T05:37:18;6.50;17.40
6486;DHT22;3276;48.490;9.222;2022-11-20T05:39:43;6.50;16.80
6486;DHT22;3276;48.490;9.222;2022-11-20T05:42:09;6.40;16.80
6486;DHT22;3276;48.490;9.222;2022-11-20T05:44:53;6.40;16.80
6486;DHT22;3276;48.490;9.222;2022-11-20T05:47:19;6.30;17.20
6486;DHT22;3276;48.490;9.222;2022-11-20T05:49:44;6.30;17.50
6486;DHT22;3276;48.490;9.222;2022-11-20T05:52:10;6.30;17.60
6486;DHT22;3276;48.490;9.222;2022-11-20T05:54:35;6.30;17.00
6486;DHT22;3276;48.490;9.222;2022-11-20T05:57:01;6.30;18.00
6486;DHT22;3276;48.490;9.222;2022-11-20T05:59:26;6.20;17.30
6486;DHT22;3276;48.490;9.222;2022-11-20T06:01:52;6.20;17.10
6486;DHT22;3276;48.490;9.222;2022-11-20T06:04:17;6.30;17.40
6486;DHT22;3276;48.490;9.222;2022-11-20T06:06:43;6.30;16.50
6486;DHT22;3276;48.490;9.222;2022-11-20T06:09:08;6.30;16.90
6486;DHT22;3276;48.490;9.222;2022-11-20T06:11:34;6.30;17.00
6486;DHT22;3276;48.490;9.222;2022-11-20T06:13:59;6.20;17.70
6486;DHT22;3276;48.490;9.222;2022-11-20T06:16:25;6.20;17.10
6486;DHT22;3276;48.490;9.222;2022-11-20T06:18:51;6.10;18.30
6486;DHT22;3276;48.490;9.222;2022-11-20T06:21:18;6.20;18.40
6486;DHT22;3276;48.490;9.222;2022-11-20T06:23:45;6.10;18.10
6486;DHT22;3276;48.490;9.222;2022-11-20T06:26:12;6.00;18.50
6486;DHT22;3276;48.490;9.222;2022-11-20T06:28:39;6.00;18.30
6486;DHT22;3276;48.490;9.222;2022-11-20T06:31:06;6.00;18.30
6486;DHT22;3276;48.490;9.222;2022-11-20T06:33:32;6.00;18.00
6486;DHT22;3276;48.490;9.222;2022-11-20T06:35:58;6.00;18.90
6486;DHT22;3276;48.490;9.222;2022-11-20T06:38:28;6.00;18.70
6486;DHT22;3276;48.490;9.222;2022-11-20T06:40:54;6.00;18.10
6486;DHT22;3276;48.490;9.222;2022-11-20T06:43:20;6.10;18.40
6486;DHT22;3276;48.490;9.222;2022-11-20T06:45:46;6.20;18.70
6486;DHT22;3276;48.490;9.222;2022-11-20T06:48:11;6.10;18.20
6486;DHT22;3276;48.490;9.222;2022-11-20T06:50:37;6.00;18.90
6486;DHT22;3276;48.490;9.222;2022-11-20T06:53:04;6.00;18.70
6486;DHT22;3276;48.490;9.222;2022-11-20T06:55:30;6.10;18.20
6486;DHT22;3276;48.490;9.222;2022-11-20T06:57:56;6.10;18.70
6486;DHT22;3276;48.490;9.222;2022-11-20T07:00:22;6.20;18.80
6486;DHT22;3276;48.490;9.222;2022-11-20T07:02:47;6.10;18.70
6486;DHT22;3276;48.490;9.222;2022-11-20T07:05:13;6.10;18.60
6486;DHT22;3276;48.490;9.222;2022-11-20T07:07:39;6.10;18.50
6486;DHT22;3276;48.490;9.222;2022-11-20T07:10:05;6.20;18.70
6486;DHT22;3276;48.490;9.222;2022-11-20T07:12:30;6.20;18.70
6486;DHT22;3276;48.490;9.222;2022-11-20T07:14:56;6.20;19.00
6486;DHT22;3276;48.490;9.222;2022-11-20T07:17:22;6.30;19.00
6486;DHT22;3276;48.490;9.222;2022-11-20T07:19:47;6.30;18.90
6486;DHT22;3276;48.490;9.222;2022-11-20T07:22:13;6.40;18.30
6486;DHT22;3276;48.490;9.222;2022-11-20T07:24:38;6.40;18.80
6486;DHT22;3276;48.490;9.222;2022-11-20T07:27:04;6.50;18.50
6486;DHT22;3276;48.490;9.222;2022-11-20T07:29:30;6.40;18.30
6486;DHT22;3276;48.490;9.222;2022-11-20T07:31:56;6.40;18.20
6486;DHT22;3276;48.490;9.222;2022-11-20T07:34:22;6.40;19.20
6486;DHT22;3276;48.490;9.222;2022-11-20T07:36:47;6.50;19.10
6486;DHT22;3276;48.490;9.222;2022-11-20T07:39:13;6.50;18.80
6486;DHT22;3276;48.490;9.222;2022-11-20T07:41:38;6.60;18.50
6486;DHT22;3276;48.490;9.222;2022-11-20T07:44:04;6.60;18.20
6486;DHT22;3276;48.490;9.222;2022-11-20T07:46:30;6.80;18.60
6486;DHT22;3276;48.490;9.222;2022-11-20T07:48:55;6.80;18.20
6486;DHT22;3276;48.490;9.222;2022-11-20T07:51:21;6.80;18.30
6486;DHT22;3276;48.490;9.222;2022-11-20T07:53:47;6.80;18.20
6486;DHT22;3276;48.490;9.222;2022-11-20T07:56:12;6.80;18.60
6486;DHT22;3276;48.490;9.222;2022-11-20T07:58:39;6.90;18.80
6486;DHT22;3276;48.490;9.222;2022-11-20T08:01:08;7.00;17.70
6486;DHT22;3276;48.490;9.222;2022-11-20T08:03:34;7.10;18.50
6486;DHT22;3276;48.490;9.222;2022-11-20T08:06:00;7.10;17.90
6486;DHT22;3276;48.490;9.222;2022-11-20T08:08:26;7.10;17.20
6486;DHT22;3276;48.490;9.222;2022-11-20T08:10:52;7.10;17.30
6486;DHT22;3276;48.490;9.222;2022-11-20T08:13:17;7.20;17.30
6486;DHT22;3276;48.490;9.222;2022-11-20T08:16:02;7.20;17.30
6486;DHT22;3276;48.490;9.222;2022-11-20T08:18:27;7.40;17.40
6486;DHT22;3276;48.490;9.222;2022-11-20T08:20:53;7.50;16.80
6486;DHT22;3276;48.490;9.222;2022-11-20T08:23:18;7.70;16.30
6486;DHT22;3276;48.490;9.222;2022-11-20T08:25:49;7.50;15.50
6486;DHT22;3276;48.490;9.222;2022-11-20T08:28:15;7.50;16.20
6486;DHT22;3276;48.490;9.222;2022-11-20T08:30:40;7.60;16.10
6486;DHT22;3276;48.490;9.222;2022-11-20T08:33:08;7.70;15.40
6486;DHT22;3276;48.490;9.222;2022-11-20T08:35:37;7.60;16.40
6486;DHT22;3276;48.490;9.222;2022-11-20T08:38:04;7.60;16.10
6486;DHT22;3276;48.490;9.222;2022-11-20T08:40:30;7.40;15.50
6486;DHT22;3276;48.490;9.222;2022-11-20T08:42:55;7.50;16.20
6486;DHT22;3276;48.490;9.222;2022-11-20T08:45:21;7.40;15.90
6486;DHT22;3276;48.490;9.222;2022-11-20T08:47:47;7.50;16.00
6486;DHT22;3276;48.490;9.222;2022-11-20T08:50:14;7.60;16.00
6486;DHT22;3276;48.490;9.222;2022-11-20T08:52:40;7.50;15.80
6486;DHT22;3276;48.490;9.222;2022-11-20T08:55:06;7.60;16.50
6486;DHT22;3276;48.490;9.222;2022-11-20T08:57:36;7.80;16.00
6486;DHT22;3276;48.490;9.222;2022-11-20T09:00:04;7.80;15.90
6486;DHT22;3276;48.490;9.222;2022-11-20T09:02:29;7.70;15.40
6486;DHT22;3276;48.490;9.222;2022-11-20T09:04:55;7.80;15.60
6486;DHT22;3276;48.490;9.222;2022-11-20T09:07:21;7.90;15.20
6486;DHT22;3276;48.490;9.222;2022-11-20T09:09:46;8.00;15.30
6486;DHT22;3276;48.490;9.222;2022-11-20T09:12:13;8.00;15.10
6486;DHT22;3276;48.490;9.222;2022-11-20T09:14:38;7.90;15.60
6486;DHT22;3276;48.490;9.222;2022-11-20T09:17:04;8.00;15.50
6486;DHT22;3276;48.490;9.222;2022-11-20T09:19:29;7.90;16.40
6486;DHT22;3276;48.490;9.222;2022-11-20T09:21:55;7.90;16.50
6486;DHT22;3276;48.490;9.222;2022-11-20T09:24:20;7.70;17.80
6486;DHT22;3276;48.490;9.222;2022-11-20T09:26:46;7.70;17.40
6486;DHT22;3276;48.490;9.222;2022-11-20T09:29:12;7.70;17.10
6486;DHT22;3276;48.490;9.222;2022-11-20T09:31:38;7.70;17.40
6486;DHT22;3276;48.490;9.222;2022-11-20T09:34:03;7.80;17.20
6486;DHT22;3276;48.490;9.222;2022-11-20T09:36:29;7.70;16.80
6486;DHT22;3276;48.490;9.222;2022-11-20T09:38:54;7.70;16.60
6486;DHT22;3276;48.490;9.222;2022-11-20T09:47:09;7.60;17.50
6486;DHT22;3276;48.490;9.222;2022-11-20T09:55:25;7.80;17.70
6486;DHT22;3276;48.490;9.222;2022-11-20T09:57:53;7.90;17.70
6486;DHT22;3276;48.490;9.222;2022-11-20T10:00:19;8.00;18.50
6486;DHT22;3276;48.490;9.222;2022-11-20T10:02:58;7.90;17.80
6486;DHT22;3276;48.490;9.222;2022-11-20T10:05:47;7.80;17.70
6486;DHT22;3276;48.490;9.222;2022-11-20T10:08:37;7.80;17.70
6486;DHT22;3276;48.490;9.222;2022-11-20T10:11:13;7.60;18.90
6486;DHT22;3276;48.490;9.222;2022-11-20T10:19:20;7.80;19.10
6486;DHT22;3276;48.490;9.222;2022-11-20T10:21:57;7.70;19.30
6486;DHT22;3276;48.490;9.222;2022-11-20T10:24:39;7.60;19.90
6486;DHT22;3276;48.490;9.222;2022-11-20T10:27:18;7.40;20.00
6486;DHT22;3276;48.490;9.222;2022-11-20T10:30:13;7.20;20.30
6486;DHT22;3276;48.490;9.222;2022-11-20T10:32:42;7.30;21.50
6486;DHT22;3276;48.490;9.222;2022-11-20T10:35:34;7.30;20.70
6486;DHT22;3276;48.490;9.222;2022-11-20T10:38:03;7.30;20.20
6486;DHT22;3276;48.490;9.222;2022-11-20T10:40:40;7.50;20.60
6486;DHT22;3276;48.490;9.222;2022-11-20T10:43:28;7.50;19.90
6486;DHT22;3276;48.490;9.222;2022-11-20T10:46:04;7.60;20.10
6486;DHT22;3276;48.490;9.222;2022-11-20T10:48:31;7.50;20.10
6486;DHT22;3276;48.490;9.222;2022-11-20T10:51:35;7.50;20.30
6486;DHT22;3276;48.490;9.222;2022-11-20T10:54:32;7.80;20.70
6486;DHT22;3276;48.490;9.222;2022-11-20T10:57:31;7.90;20.10
6486;DHT22;3276;48.490;9.222;2022-11-20T11:00:09;7.70;19.60
6486;DHT22;3276;48.490;9.222;2022-11-20T11:02:48;7.80;20.50
6486;DHT22;3276;48.490;9.222;2022-11-20T11:07:40;8.00;20.30
6486;DHT22;3276;48.490;9.222;2022-11-20T11:12:44;8.10;19.50
6486;DHT22;3276;48.490;9.222;2022-11-20T11:15:14;8.20;19.60
6486;DHT22;3276;48.490;9.222;2022-11-20T11:17:46;8.10;20.40
6486;DHT22;3276;48.490;9.222;2022-11-20T11:20:24;8.00;19.80
6486;DHT22;3276;48.490;9.222;2022-11-20T11:22:55;8.20;20.40
6486;DHT22;3276;48.490;9.222;2022-11-20T11:25:23;8.30;19.90
6486;DHT22;3276;48.490;9.222;2022-11-20T11:27:50;8.40;20.70
6486;DHT22;3276;48.490;9.222;2022-11-20T11:30:18;8.60;19.20
6486;DHT22;3276;48.490;9.222;2022-11-20T11:32:44;8.60;19.80
6486;DHT22;3276;48.490;9.222;2022-11-20T11:35:26;8.70;19.20
6486;DHT22;3276;48.490;9.222;2022-11-20T11:38:02;9.00;19.10
6486;DHT22;3276;48.490;9.222;2022-11-20T11:40:35;9.10;17.20
6486;DHT22;3276;48.490;9.222;2022-11-20T11:43:05;9.10;17.60
6486;DHT22;3276;48.490;9.222;2022-11-20T11:45:54;9.10;17.70
6486;DHT22;3276;48.490;9.222;2022-11-20T11:48:20;9.40;17.20
6486;DHT22;3276;48.490;9.222;2022-11-20T11:50:50;9.70;16.00
6486;DHT22;3276;48.490;9.222;2022-11-20T11:53:18;9.90;15.70
6486;DHT22;3276;48.490;9.222;2022-11-20T11:55:48;9.70;14.50
6486;DHT22;3276;48.490;9.222;2022-11-20T11:59:04;9.50;15.80
6486;DHT22;3276;48.490;9.222;2022-11-20T12:01:17;9.30;16.00
6486;DHT22;3276;48.490;9.222;2022-11-20T12:06:39;9.50;15.50
6486;DHT22;3276;48.490;9.222;2022-11-20T12:09:11;9.90;14.70
6486;DHT22;3276;48.490;9.222;2022-11-20T12:14:20;10.10;13.60
6486;DHT22;3276;48.490;9.222;2022-11-20T12:16:50;10.10;12.90
6486;DHT22;3276;48.490;9.222;2022-11-20T12:19:16;10.20;11.80
6486;DHT22;3276;48.490;9.222;2022-11-20T12:22:17;10.30;12.20
6486;DHT22;3276;48.490;9.222;2022-11-20T12:27:49;9.80;14.00
6486;DHT22;3276;48.490;9.222;2022-11-20T12:30:19;9.40;13.40
6486;DHT22;3276;48.490;9.222;2022-11-20T12:38:25;8.60;15.20
6486;DHT22;3276;48.490;9.222;2022-11-20T12:41:20;8.50;15.50
6486;DHT22;3276;48.490;9.222;2022-11-20T12:50:35;8.60;15.90
6486;DHT22;3276;48.490;9.222;2022-11-20T12:53:08;8.60;16.50
6486;DHT22;3276;48.490;9.222;2022-11-20T12:55:54;8.40;17.20
6486;DHT22;3276;48.490;9.222;2022-11-20T12:58:43;8.20;17.90
6486;DHT22;3276;48.490;9.222;2022-11-20T13:01:30;8.30;18.00
6486;DHT22;3276;48.490;9.222;2022-11-20T13:07:07;8.10;17.90
6486;DHT22;3276;48.490;9.222;2022-11-20T13:09:43;8.20;18.00
6486;DHT22;3276;48.490;9.222;2022-11-20T13:18:14;8.60;16.90
6486;DHT22;3276;48.490;9.222;2022-11-20T13:20:33;8.50;16.60
6486;DHT22;3276;48.490;9.222;2022-11-20T13:22:59;8.60;15.80
6486;DHT22;3276;48.490;9.222;2022-11-20T13:27:57;8.80;15.00
6486;DHT22;3276;48.490;9.222;2022-11-20T13:30:27;8.70;15.40
6486;DHT22;3276;48.490;9.222;2022-11-20T13:33:09;8.80;14.00
6486;DHT22;3276;48.490;9.222;2022-11-20T13:35:59;8.70;14.40
6486;DHT22;3276;48.490;9.222;2022-11-20T13:38:26;8.60;14.50
6486;DHT22;3276;48.490;9.222;2022-11-20T13:40:56;8.60;14.80
6486;DHT22;3276;48.490;9.222;2022-11-20T13:43:41;8.80;14.00
6486;DHT22;3276;48.490;9.222;2022-11-20T13:46:09;8.80;14.00
6486;DHT22;3276;48.490;9.222;2022-11-20T13:48:39;8.80;14.90
6486;DHT22;3276;48.490;9.222;2022-11-20T13:51:37;8.70;14.00
6486;DHT22;3276;48.490;9.222;2022-11-20T14:00:15;9.80;12.60
6486;DHT22;3276;48.490;9.222;2022-11-20T14:02:41;9.70;11.60
6486;DHT22;3276;48.490;9.222;2022-11-20T14:05:22;9.70;10.70
6486;DHT22;3276;48.490;9.222;2022-11-20T14:07:49;9.50;10.90
6486;DHT22;3276;48.490;9.222;2022-11-20T14:10:24;9.10;11.10
6486;DHT22;3276;48.490;9.222;2022-11-20T14:12:50;8.70;11.50
6486;DHT22;3276;48.490;9.222;2022-11-20T14:15:31;8.40;11.60
6486;DHT22;3276;48.490;9.222;2022-11-20T14:17:58;8.30;13.10
6486;DHT22;3276;48.490;9.222;2022-11-20T14:20:26;8.20;13.00
6486;DHT22;3276;48.490;9.222;2022-11-20T14:22:54;8.00;12.90
6486;DHT22;3276;48.490;9.222;2022-11-20T14:25:22;7.90;13.50
6486;DHT22;3276;48.490;9.222;2022-11-20T14:27:52;8.00;13.50
6486;DHT22;3276;48.490;9.222;2022-11-20T14:30:22;8.20;13.60
6486;DHT22;3276;48.490;9.222;2022-11-20T14:32:48;8.20;13.60
6486;DHT22;3276;48.490;9.222;2022-11-20T14:35:25;8.30;13.70
6486;DHT22;3276;48.490;9.222;2022-11-20T14:37:51;8.30;12.30
6486;DHT22;3276;48.490;9.222;2022-11-20T14:40:34;8.40;13.00
6486;DHT22;3276;48.490;9.222;2022-11-20T14:43:18;8.40;13.20
6486;DHT22;3276;48.490;9.222;2022-11-20T14:45:48;8.50;13.80
6486;DHT22;3276;48.490;9.222;2022-11-20T14:48:14;8.30;12.80
6486;DHT22;3276;48.490;9.222;2022-11-20T14:50:41;8.20;12.80
6486;DHT22;3276;48.490;9.222;2022-11-20T14:53:06;8.10;12.70
6486;DHT22;3276;48.490;9.222;2022-11-20T14:55:35;8.00;13.10
6486;DHT22;3276;48.490;9.222;2022-11-20T14:58:25;7.90;13.50
6486;DHT22;3276;48.490;9.222;2022-11-20T15:01:04;7.80;13.40
6486;DHT22;3276;48.490;9.222;2022-11-20T15:03:32;7.70;13.30
6486;DHT22;3276;48.490;9.222;2022-11-20T15:05:58;7.70;14.00
6486;DHT22;3276;48.490;9.222;2022-11-20T15:08:24;7.70;14.20
6486;DHT22;3276;48.490;9.222;2022-11-20T15:10:50;7.80;14.40
6486;DHT22;3276;48.490;9.222;2022-11-20T15:13:26;7.80;14.70
6486;DHT22;3276;48.490;9.222;2022-11-20T15:15:55;7.80;14.80
6486;DHT22;3276;48.490;9.222;2022-11-20T15:18:33;7.90;14.40
6486;DHT22;3276;48.490;9.222;2022-11-20T15:21:03;8.00;14.20
6486;DHT22;3276;48.490;9.222;2022-11-20T15:23:31;7.90;13.80
6486;DHT22;3276;48.490;9.222;2022-11-20T15:25:57;7.90;13.90
6486;DHT22;3276;48.490;9.222;2022-11-20T15:28:31;7.90;14.30
6486;DHT22;3276;48.490;9.222;2022-11-20T15:30:58;7.80;14.50
6486;DHT22;3276;48.490;9.222;2022-11-20T15:33:24;7.70;14.40
6486;DHT22;3276;48.490;9.222;2022-11-20T15:35:50;7.50;16.70
6486;DHT22;3276;48.490;9.222;2022-11-20T15:38:16;7.40;17.90
6486;DHT22;3276;48.490;9.222;2022-11-20T15:40:41;7.30;17.40
6486;DHT22;3276;48.490;9.222;2022-11-20T15:43:07;7.20;16.80
6486;DHT22;3276;48.490;9.222;2022-11-20T15:45:44;7.20;17.30
6486;DHT22;3276;48.490;9.222;2022-11-20T15:48:14;7.10;16.60
6486;DHT22;3276;48.490;9.222;2022-11-20T15:53:37;6.90;15.90
6486;DHT22;3276;48.490;9.222;2022-11-20T15:56:03;6.80;16.10
6486;DHT22;3276;48.490;9.222;2022-11-20T15:58:29;6.70;16.30
6486;DHT22;3276;48.490;9.222;2022-11-20T16:00:55;6.60;16.40
6486;DHT22;3276;48.490;9.222;2022-11-20T16:03:21;6.50;16.80
6486;DHT22;3276;48.490;9.222;2022-11-20T16:05:46;6.40;17.30
6486;DHT22;3276;48.490;9.222;2022-11-20T16:08:12;6.40;16.80
6486;DHT22;3276;48.490;9.222;2022-11-20T16:10:38;6.40;16.90
6486;DHT22;3276;48.490;9.222;2022-11-20T16:13:05;6.30;16.60
6486;DHT22;3276;48.490;9.222;2022-11-20T16:15:56;6.20;16.70
6486;DHT22;3276;48.490;9.222;2022-11-20T16:18:22;6.10;16.60
6486;DHT22;3276;48.490;9.222;2022-11-20T16:20:51;6.10;16.60
6486;DHT22;3276;48.490;9.222;2022-11-20T16:23:18;6.10;16.60
6486;DHT22;3276;48.490;9.222;2022-11-20T16:25:44;6.20;16.70
6486;DHT22;3276;48.490;9.222;2022-11-20T16:28:10;6.20;15.60
6486;DHT22;3276;48.490;9.222;2022-11-20T16:30:36;6.20;16.20
6486;DHT22;3276;48.490;9.222;2022-11-20T16:33:03;6.30;15.80
6486;DHT22;3276;48.490;9.222;2022-11-20T16:35:30;6.30;15.70
6486;DHT22;3276;48.490;9.222;2022-11-20T16:37:56;6.30;15.60
6486;DHT22;3276;48.490;9.222;2022-11-20T16:40:22;6.30;14.60
6486;DHT22;3276;48.490;9.222;2022-11-20T16:42:48;6.40;15.30
6486;DHT22;3276;48.490;9.222;2022-11-20T16:45:14;6.50;15.10
6486;DHT22;3276;48.490;9.222;2022-11-20T16:47:40;6.50;14.50
6486;DHT22;3276;48.490;9.222;2022-11-20T16:50:06;6.50;14.40
6486;DHT22;3276;48.490;9.222;2022-11-20T16:52:32;6.60;13.70
6486;DHT22;3276;48.490;9.222;2022-11-20T16:54:57;6.60;12.60
6486;DHT22;3276;48.490;9.222;2022-11-20T16:57:24;6.70;12.70
6486;DHT22;3276;48.490;9.222;2022-11-20T16:59:49;6.70;12.70
6486;DHT22;3276;48.490;9.222;2022-11-20T17:02:15;6.70;12.70
6486;DHT22;3276;48.490;9.222;2022-11-20T17:04:41;6.80;13.20
6486;DHT22;3276;48.490;9.222;2022-11-20T17:07:07;6.80;12.90
6486;DHT22;3276;48.490;9.222;2022-11-20T17:09:32;6.80;12.70
6486;DHT22;3276;48.490;9.222;2022-11-20T17:11:58;6.80;12.40
6486;DHT22;3276;48.490;9.222;2022-11-20T17:14:24;6.90;12.80
6486;DHT22;3276;48.490;9.222;2022-11-20T17:16:49;6.90;12.50
6486;DHT22;3276;48.490;9.222;2022-11-20T17:19:15;6.90;12.80
6486;DHT22;3276;48.490;9.222;2022-11-20T17:21:43;7.00;11.80
6486;DHT22;3276;48.490;9.222;2022-11-20T17:24:11;7.00;12.00
6486;DHT22;3276;48.490;9.222;2022-11-20T17:26:38;6.90;12.10
6486;DHT22;3276;48.490;9.222;2022-11-20T17:29:06;6.90;12.20
6486;DHT22;3276;48.490;9.222;2022-11-20T17:31:34;7.00;11.50
6486;DHT22;3276;48.490;9.222;2022-11-20T17:34:00;7.00;11.40
6486;DHT22;3276;48.490;9.222;2022-11-20T17:36:26;7.00;11.50